KIER

Natchitoches Regional Airport

Natchitoches, Louisiana, USA
METAR KIER 160115Z AUTO 00000KT 10SM OVC032 09/08 A3016 RMK AO2 T00920080
Observed Flight Rules
Dec-16 @ 01:15 UTC (19 minutes ago) Visual Flight Rules
Visibility Clouds
10 miles
  • Overcast at 3,200' AGL
Temperatures Readings
Current 9°C / 48°F
Dewpoint 8°C / 46°F
Humidity 94%
Altimeter 30.16" Hg
Pressure 1021 hPa
Elevation 37
METAR KIER 160115Z AUTO 00000KT 10SM OVC032 09/08 A3016 RMK AO2 T00920080
Observed Flight Rules
Dec-16 @ 01:15 UTC
(19 minutes ago)
VFR
Clouds
  • Overcast at 3,200' AGL
Temperature Dewpoint
9°C / 48°F 8°C / 46°F
Humidity Altimeter Pressure
94% 30.16" Hg 1021 hPa